Time;durP1;ratioP1;P1;durP2;ratioP2;P2;SDS_P1;SDS_P2;PMS_P1;PMS_P2;Temp;Humidity;BMP_temperature;BMP_pressure;BME280_temperature;BME280_humidity;BME280_pressure;Samples;Min_cycle;Max_cycle;Signal;HPM_P1;HPM_P2
2022/09/12 00:00:22;;;;;;;6.13;5.63;;;;;;;;;;6241386;22;20114;-85
2022/09/12 00:02:51;;;;;;;6.60;6.00;;;;;;;;;;6243929;22;20012;-85
2022/09/12 00:05:17;;;;;;;8.27;5.78;;;;;;;;;;6269345;22;20388;-85
2022/09/12 00:07:43;;;;;;;6.88;6.25;;;;;;;;;;6217176;22;20023;-85
2022/09/12 00:10:09;;;;;;;7.00;6.00;;;;;;;;;;6269049;22;20019;-83
2022/09/12 00:12:35;;;;;;;9.90;6.32;;;;;;;;;;6240690;22;20810;-85
2022/09/12 00:15:02;;;;;;;7.05;6.07;;;;;;;;;;6297378;22;20118;-84
2022/09/12 00:17:28;;;;;;;7.18;6.47;;;;;;;;;;6266501;22;20088;-85
2022/09/12 00:19:54;;;;;;;7.55;6.85;;;;;;;;;;6298658;22;20023;-85
2022/09/12 00:22:21;;;;;;;8.70;6.55;;;;;;;;;;6266732;22;21651;-84
2022/09/12 00:27:55;;;;;;;8.77;7.25;;;;;;;;;;6287402;22;20094;-85
2022/09/12 00:30:21;;;;;;;7.35;6.75;;;;;;;;;;6268126;22;20022;-85
2022/09/12 00:33:00;;;;;;;8.23;7.45;;;;;;;;;;6244173;22;20023;-85
2022/09/12 00:35:48;;;;;;;9.13;7.28;;;;;;;;;;6245244;22;20471;-84
2022/09/12 00:38:15;;;;;;;8.35;7.43;;;;;;;;;;6246469;22;20045;-84
2022/09/12 00:41:38;;;;;;;11.40;7.88;;;14.90;99.90;;;;;;6243344;22;20011;-84
2022/09/12 00:44:32;;;;;;;8.70;7.90;;;;;;;;;;6258646;22;20137;-85
2022/09/12 00:53:51;;;;;;;8.73;7.80;;;;;;;;;;6275272;22;20023;-86
2022/09/12 01:00:04;;;;;;;8.80;8.00;;;;;;;;;;6295528;22;20101;-85
2022/09/12 01:02:39;;;;;;;8.95;8.15;;;;;;;;;;6276586;22;20019;-87
2022/09/12 01:05:09;;;;;;;9.95;8.82;;;;;;;;;;6252166;22;20065;-87
2022/09/12 01:07:47;;;;;;;12.98;8.85;;;;;;;;;;6277445;22;20019;-88
2022/09/12 01:10:23;;;;;;;9.60;8.63;;;;;;;;;;6253172;22;20064;-86
2022/09/12 01:12:54;;;;;;;10.48;9.35;;;;;;;;;;6259666;22;20325;-86
2022/09/12 01:15:20;;;;;;;9.65;8.65;;;;;;;;;;6228454;22;20011;-88
2022/09/12 01:18:23;;;;;;;11.73;9.88;;;;;;;;;;6278496;22;20023;-84
2022/09/12 01:21:03;;;;;;;11.00;9.95;;;;;;;;;;6302483;22;20022;-84
2022/09/12 01:26:20;;;;;;;12.13;10.90;;;;;;;;;;6302609;22;20049;-84
2022/09/12 01:29:21;;;;;;;12.55;11.13;;;;;;;;;;6246693;22;20027;-86
2022/09/12 01:32:06;;;;;;;13.13;11.13;;;;;;;;;;6123186;23;20405;-87
2022/09/12 01:34:59;;;;;;;13.85;12.55;;;;;;;;;;6238445;22;20068;-86
2022/09/12 01:37:58;;;;;;;14.23;12.93;;;;;;;;;;6244733;22;20463;-86
2022/09/12 01:40:47;;;;;;;15.98;13.10;;;;;;;;;;6273631;22;20246;-85
2022/09/12 01:43:25;;;;;;;12.93;11.60;;;;;;;;;;6299152;22;20022;-86
2022/09/12 01:52:08;;;;;;;14.82;13.32;;;;;;;;;;6298754;22;20023;-84
2022/09/12 02:01:06;;;;;;;16.40;14.70;;;;;;;;;;6303830;22;20498;-86
2022/09/12 02:10:31;;;;;;;17.55;15.63;;;;;;;;;;6303091;22;20017;-85
2022/09/12 02:13:00;;;;;;;17.23;15.48;;;;;;;;;;6248956;22;20023;-85
2022/09/12 02:19:10;;;;;;;18.42;16.50;;;;;;;;;;6243692;22;20030;-85
2022/09/12 02:21:39;;;;;;;24.23;16.75;;;;;;;;;;6270520;22;20057;-85
2022/09/12 02:31:21;;;;;;;20.20;17.90;;;;;;;;;;6298014;22;20010;-87
2022/09/12 02:34:48;;;;;;;20.75;18.55;;;14.30;99.90;;;;;;6272831;22;20015;-84
2022/09/12 02:37:26;;;;;;;21.17;18.83;;;;;;;;;;6299104;22;20069;-85
2022/09/12 02:39:55;;;;;;;21.13;18.92;;;;;;;;;;6271698;22;20019;-87
2022/09/12 02:42:42;;;;;;;21.75;19.45;;;;;;;;;;6249589;22;20458;-85
2022/09/12 02:48:36;;;;;;;21.73;19.63;;;;;;;;;;6302258;22;20014;-85
2022/09/12 02:51:24;;;;;;;21.55;19.35;;;;;;;;;;6243139;22;20034;-85
2022/09/12 03:13:42;;;;;;;27.40;24.50;;;;;;;;;;6223901;23;20016;-86
2022/09/12 03:16:27;;;;;;;29.45;26.08;;;;;;;;;;6243550;23;20027;-84
2022/09/12 03:19:08;;;;;;;36.70;27.88;;;;;;;;;;6191024;23;20016;-85
2022/09/12 03:24:17;;;;;;;33.22;29.65;;;;;;;;;;6303170;22;20474;-86
2022/09/12 03:26:57;;;;;;;34.63;29.20;;;;;;;;;;6290832;22;20023;-86
2022/09/12 03:33:05;;;;;;;30.48;26.88;;;;;;;;;;6303415;22;20446;-86
2022/09/12 03:42:12;;;;;;;29.48;25.10;;;;;;;;;;6279445;22;20030;-84
2022/09/12 03:44:39;;;;;;;31.98;27.65;;;;;;;;;;6271398;22;20027;-87
2022/09/12 03:47:06;;;;;;;37.70;28.75;;;;;;;;;;6242589;22;20360;-85
2022/09/12 03:52:43;;;;;;;34.40;26.58;;;;;;;;;;6300050;22;20038;-84
2022/09/12 03:57:53;;;;;;;30.98;27.17;;;;;;;;;;6274796;22;20024;-85
2022/09/12 04:00:28;;;;;;;29.80;26.45;;;;;;;;;;6270510;22;20266;-84
2022/09/12 04:03:18;;;;;;;28.40;25.50;;;;;;;;;;6243562;22;20095;-86
2022/09/12 04:06:21;;;;;;;28.75;25.75;;;;;;;;;;6271401;22;20352;-88
2022/09/12 04:09:05;;;;;;;32.53;27.67;;;;;;;;;;6246197;22;20027;-86
2022/09/12 04:11:57;;;;;;;38.35;30.35;;;;;;;;;;6227623;22;20023;-86
2022/09/12 04:14:30;;;;;;;33.47;29.10;;;;;;;;;;6279930;22;20026;-88
2022/09/12 04:16:56;;;;;;;33.07;28.23;;;;;;;;;;6249200;22;20023;-86
2022/09/12 04:22:16;;;;;;;37.58;29.05;;;;;;;;;;6274628;22;20102;-85
2022/09/12 04:24:42;;;;;;;35.55;29.85;;;;;;;;;;6245994;22;20066;-86
2022/09/12 04:27:11;;;;;;;38.17;30.40;;;;;;;;;;6274974;22;20035;-86
2022/09/12 04:29:59;;;;;;;40.45;31.13;;;;;;;;;;6245550;22;20074;-86
2022/09/12 04:35:03;;;;;;;44.30;32.28;;;;;;;;;;6304238;22;20065;-86
2022/09/12 04:37:30;;;;;;;43.55;33.45;;;;;;;;;;6275506;22;20020;-86
2022/09/12 04:40:14;;;;;;;43.90;33.42;;;;;;;;;;6242681;22;20358;-85
2022/09/12 04:43:05;;;;;;;43.53;34.40;;;;;;;;;;6280227;22;20027;-85
2022/09/12 04:48:40;;;;;;;41.03;32.30;;;;;;;;;;6304201;22;20080;-85
2022/09/12 04:51:09;;;;;;;39.95;31.90;;;;;;;;;;6274331;22;20023;-86
2022/09/12 04:53:35;;;;;;;37.05;31.98;;;;;;;;;;6304074;22;20017;-87
2022/09/12 04:58:32;;;;;;;38.08;31.20;;;;;;;;;;6303795;22;20113;-86
2022/09/12 05:01:39;;;;;;;41.38;29.30;;;;;;;;;;6302786;22;20042;-86
2022/09/12 05:04:20;;;;;;;41.40;31.08;;;;;;;;;;6143055;23;20071;-85
2022/09/12 05:06:46;;;;;;;38.53;32.15;;;;;;;;;;6189625;23;20016;-87
2022/09/12 05:09:13;;;;;;;44.85;32.67;;;;;;;;;;6187438;23;20020;-86
2022/09/12 05:11:41;;;;;;;42.03;32.85;;;;;;;;;;6188169;23;20409;-86
2022/09/12 05:14:10;;;;;;;42.88;32.55;;;;;;;;;;6236849;23;20019;-86
2022/09/12 05:16:48;;;;;;;46.05;34.85;;;;;;;;;;6212783;23;20024;-85
2022/09/12 05:19:40;;;;;;;42.25;34.00;;;;;;;;;;6186414;23;20082;-86
2022/09/12 05:28:02;;;;;;;47.08;36.58;;;;;;;;;;6303535;22;20454;-85
2022/09/12 05:30:37;;;;;;;53.95;36.42;;;;;;;;;;6274443;22;20394;-87
2022/09/12 05:35:51;;;;;;;47.03;36.75;;;;;;;;;;6291490;22;20440;-87
2022/09/12 05:38:20;;;;;;;48.45;37.38;;;;;;;;;;6277952;22;20089;-86
2022/09/12 05:43:12;;;;;;;50.20;34.95;;;;;;;;;;6332528;22;20030;-86
2022/09/12 05:45:40;;;;;;;44.45;35.13;;;;;;;;;;6279242;22;20030;-85
2022/09/12 05:51:20;;;;;;;50.90;36.42;;;;;;;;;;6337620;22;20018;-85
2022/09/12 05:53:47;;;;;;;52.92;37.30;;;;;;;;;;6284802;22;20486;-87
2022/09/12 05:56:17;;;;;;;49.65;36.63;;;;;;;;;;6276563;22;20322;-87
2022/09/12 05:58:47;;;;;;;50.58;37.97;;;;;;;;;;6253801;22;20050;-86
2022/09/12 06:06:58;;;;;;;48.25;37.40;;;;;;;;;;6372162;22;20025;-83
2022/09/12 06:13:12;;;;;;;50.17;36.53;;;;;;;;;;6372005;22;20029;-88
2022/09/12 06:15:38;;;;;;;55.97;37.05;;;;;;;;;;6289462;22;20465;-88
2022/09/12 06:18:05;;;;;;;47.63;36.05;;;;;;;;;;6316080;22;20023;-87
2022/09/12 06:20:31;;;;;;;61.90;37.13;;;;;;;;;;6293152;22;20015;-84
2022/09/12 06:22:57;;;;;;;44.58;36.05;;;;;;;;;;6281353;22;20015;-83
2022/09/12 06:28:46;;;;;;;49.97;36.22;;;;;;;;;;6306748;22;20018;-82
2022/09/12 06:31:13;;;;;;;48.05;36.45;;;;;;;;;;6278246;22;20049;-83
2022/09/12 06:33:41;;;;;;;47.22;35.60;;;;;;;;;;6304321;22;20015;-83
2022/09/12 06:36:09;;;;;;;45.97;34.97;;;;;;;;;;6305410;22;20073;-84
2022/09/12 06:38:37;;;;;;;47.72;36.78;;;;;;;;;;6279352;22;20089;-83
2022/09/12 06:41:05;;;;;;;46.92;35.42;;;;;;;;;;6282733;22;20026;-85
2022/09/12 06:43:31;;;;;;;51.13;36.28;;;;;;;;;;6285075;22;20098;-84
2022/09/12 06:45:58;;;;;;;51.60;36.22;;;;;;;;;;6284476;22;20022;-86
2022/09/12 06:48:24;;;;;;;46.15;36.08;;;;;;;;;;6259447;22;20061;-87
2022/09/12 06:51:04;;;;;;;44.25;35.22;;;;;;;;;;6283123;22;20019;-82
2022/09/12 06:53:32;;;;;;;48.10;36.17;;;;;;;;;;6310334;22;20037;-87
2022/09/12 07:09:44;;;;;;;46.00;37.05;;;;;;;;;;6315022;22;20030;-86
2022/09/12 07:12:11;;;;;;;53.00;38.28;;;;;;;;;;6229295;22;20024;-86
2022/09/12 07:14:49;;;;;;;51.75;37.60;;;;;;;;;;6263871;22;20031;-85
2022/09/12 07:20:07;;;;;;;52.65;38.58;;;;;;;;;;6246865;23;20059;-86
2022/09/12 07:22:42;;;;;;;53.83;38.35;;;;;;;;;;6196430;23;20073;-86
2022/09/12 07:25:20;;;;;;;48.95;37.00;;;;;;;;;;6224865;22;20044;-86
2022/09/12 07:27:47;;;;;;;51.75;38.50;;;;;;;;;;6253555;22;20023;-85
2022/09/12 07:30:28;;;;;;;52.92;40.00;;;;;;;;;;6279701;22;20344;-86
2022/09/12 07:40:04;;;;;;;65.22;42.20;;;;;;;;;;6311773;22;20351;-86
2022/09/12 07:42:31;;;;;;;57.47;39.67;;;;;;;;;;6256804;22;20074;-85
2022/09/12 07:44:57;;;;;;;61.10;39.83;;;;;;;;;;6258212;22;20022;-85
2022/09/12 07:47:54;;;;;;;53.80;39.63;;;16.60;99.90;;;;;;6295257;22;20012;-83
2022/09/12 07:50:50;;;;;;;59.78;40.70;;;;;;;;;;6315382;22;20075;-85
2022/09/12 07:53:27;;;;;;;56.78;39.42;;;;;;;;;;6288762;22;20027;-86
2022/09/12 07:56:06;;;;;;;62.50;42.47;;;;;;;;;;6341890;22;20018;-82
2022/09/12 07:58:39;;;;;;;56.25;39.00;;;;;;;;;;6313952;22;20027;-85
2022/09/12 08:01:07;;;;;;;60.35;40.67;;;;;;;;;;6342220;22;20106;-85
2022/09/12 08:04:28;;;;;;;54.80;40.85;;;;;;;;;;6319272;22;20870;-85
2022/09/12 08:13:50;;;;;;;55.47;39.05;;;;;;;;;;6303543;22;20030;-80
2022/09/12 08:16:20;;;;;;;55.90;40.72;;;;;;;;;;6252089;22;20015;-84
2022/09/12 08:18:47;;;;;;;59.17;41.05;;;;;;;;;;6227394;22;20015;-84
2022/09/12 08:21:21;;;;;;;55.78;40.13;;;;;;;;;;6303575;22;20015;-84
2022/09/12 08:23:51;;;;;;;55.38;39.80;;;;;;;;;;6304699;22;20019;-81
2022/09/12 08:26:17;;;;;;;57.90;40.75;;;;;;;;;;6302912;22;20046;-85
2022/09/12 08:28:44;;;;;;;53.85;40.05;;;;;;;;;;6307456;22;20023;-82
2022/09/12 08:31:12;;;;;;;56.70;39.58;;;;;;;;;;6277828;22;20019;-85
2022/09/12 08:33:41;;;;;;;57.45;40.50;;;;;;;;;;6307163;22;20452;-85
2022/09/12 08:36:11;;;;;;;51.75;38.58;;;;;;;;;;6281507;22;20016;-82
2022/09/12 08:38:45;;;;;;;54.58;39.38;;;;;;;;;;6278524;22;20023;-82
2022/09/12 08:41:14;;;;;;;51.75;38.92;;;;;;;;;;6307421;22;20030;-85
2022/09/12 08:43:59;;;;;;;55.38;38.13;;;;;;;;;;6306096;22;20023;-82
2022/09/12 08:46:34;;;;;;;50.70;36.83;;;;;;;;;;6306165;22;20317;-83
2022/09/12 08:49:02;;;;;;;53.58;39.65;;;;;;;;;;6271123;22;20084;-82
2022/09/12 08:51:28;;;;;;;45.97;36.17;;;;;;;;;;6274940;22;20058;-83
2022/09/12 08:53:56;;;;;;;44.25;35.25;;;;;;;;;;6301044;22;20047;-81
2022/09/12 08:56:22;;;;;;;39.42;31.50;;;;;;;;;;6274742;22;20015;-80
2022/09/12 08:58:48;;;;;;;44.92;34.05;;;;;;;;;;6300941;22;20051;-80
2022/09/12 09:04:48;;;;;;;42.50;31.40;;;;;;;;;;6303098;22;20057;-82
2022/09/12 09:07:18;;;;;;;39.78;29.67;;;;;;;;;;6245973;22;20019;-82
2022/09/12 09:09:44;;;;;;;41.90;30.48;;;;;;;;;;6273506;22;20051;-82
2022/09/12 09:12:19;;;;;;;37.92;28.77;;;;;;;;;;6299293;22;20015;-82
2022/09/12 09:15:08;;;;;;;33.15;25.95;;;;;;;;;;6273248;22;20031;-81
2022/09/12 09:17:48;;;;;;;33.38;26.90;;;;;;;;;;6301701;22;20094;-84
2022/09/12 09:20:17;;;;;;;33.20;25.25;;;;;;;;;;6271758;22;20023;-82
2022/09/12 09:23:04;;;;;;;32.28;24.08;;;;;;;;;;6302681;22;20023;-83
2022/09/12 09:25:50;;;;;;;28.55;23.23;;;;;;;;;;6280863;22;20034;-81
2022/09/12 09:28:38;;;;;;;28.58;21.50;;;;;;;;;;6276060;22;20139;-84
2022/09/12 09:31:05;;;;;;;30.65;23.98;;;;;;;;;;6308649;22;20351;-82
2022/09/12 09:33:35;;;;;;;32.95;25.50;;;;;;;;;;6304684;22;20039;-83
2022/09/12 09:36:30;;;;;;;28.90;22.30;;;;;;;;;;6305178;22;20030;-84
2022/09/12 09:39:02;;;;;;;25.45;18.33;;;;;;;;;;6168047;22;20025;-84
2022/09/12 09:41:40;;;;;;;27.70;19.55;;;;;;;;;;6277678;22;20019;-87
2022/09/12 09:44:07;;;;;;;29.30;19.10;;;;;;;;;;6253829;22;20020;-83
2022/09/12 09:46:38;;;;;;;24.60;18.00;;;;;;;;;;6251482;22;20031;-86
2022/09/12 09:49:06;;;;;;;27.45;19.00;;;;;;;;;;6281437;22;20462;-85
2022/09/12 09:51:36;;;;;;;25.88;19.95;;;;;;;;;;6305741;22;20019;-86
2022/09/12 09:54:02;;;;;;;30.98;19.27;;;;;;;;;;6308241;22;20102;-82
2022/09/12 09:56:36;;;;;;;23.25;17.92;;;;;;;;;;6279591;22;20103;-86
2022/09/12 09:59:35;;;;;;;26.05;17.50;;;;;;;;;;6307008;22;20019;-84
2022/09/12 10:02:03;;;;;;;21.52;18.52;;;;;;;;;;6305170;22;20023;-83
2022/09/12 10:04:30;;;;;;;24.98;18.13;;;;;;;;;;6247763;22;20061;-82
2022/09/12 10:06:57;;;;;;;27.98;18.80;;;;;;;;;;6274955;22;20026;-81
2022/09/12 10:09:28;;;;;;;32.22;21.05;;;;;;;;;;6273201;22;20023;-82
2022/09/12 10:11:55;;;;;;;25.73;20.10;;;;;;;;;;6303466;22;20476;-83
2022/09/12 10:14:40;;;;;;;30.10;20.85;;;;;;;;;;6302267;22;20103;-82
2022/09/12 10:17:34;;;;;;;28.95;21.00;;;;;;;;;;6272897;22;20729;-81
2022/09/12 10:20:01;;;;;;;26.98;21.35;;;;;;;;;;6274458;22;20027;-84
2022/09/12 10:22:28;;;;;;;24.88;20.15;;;;;;;;;;6302697;22;20364;-81
2022/09/12 10:24:56;;;;;;;29.48;20.88;;;;;;;;;;6302463;22;20516;-82
2022/09/12 10:27:24;;;;;;;27.23;21.63;;;;;;;;;;6301037;22;20017;-82
2022/09/12 10:29:53;;;;;;;32.85;22.52;;;;;;;;;;6275349;22;20045;-81
2022/09/12 10:32:28;;;;;;;32.15;23.20;;;;;;;;;;6300360;22;20011;-84
2022/09/12 10:34:56;;;;;;;31.67;23.45;;;;;;;;;;6301864;22;20015;-81
2022/09/12 10:37:44;;;;;;;35.58;24.63;;;;;;;;;;6275062;22;20023;-82
2022/09/12 10:40:22;;;;;;;37.65;25.67;;;;;;;;;;6272706;22;20098;-82
2022/09/12 10:42:52;;;;;;;33.50;25.35;;;;;;;;;;6302147;22;20019;-81
2022/09/12 10:45:23;;;;;;;34.60;25.00;;;;;;;;;;6272847;22;20081;-84
2022/09/12 10:47:50;;;;;;;40.88;25.95;;;;;;;;;;6273712;22;20386;-82
2022/09/12 10:50:42;;;;;;;33.13;24.45;;;;;;;;;;6302065;22;20015;-83
2022/09/12 10:53:18;;;;;;;36.22;25.73;;;;;;;;;;6261826;22;20024;-86
2022/09/12 10:55:58;;;;;;;33.83;25.40;;;;;;;;;;6300579;22;20360;-84
2022/09/12 10:58:31;;;;;;;33.20;24.45;;;;;;;;;;6302639;22;20440;-82
2022/09/12 11:01:01;;;;;;;34.40;24.98;;;;;;;;;;6300194;22;20027;-84
2022/09/12 11:03:52;;;;;;;33.95;23.35;;;;;;;;;;6301801;22;20644;-82
2022/09/12 11:06:24;;;;;;;32.83;25.00;;;;;;;;;;6302233;22;20018;-84
2022/09/12 11:08:54;;;;;;;25.90;19.90;;;;;;;;;;6272530;22;20045;-84
2022/09/12 11:11:20;;;;;;;27.92;21.45;;;;;;;;;;6302479;22;20567;-81
2022/09/12 11:13:48;;;;;;;28.38;20.60;;;;;;;;;;6298470;22;20049;-81
2022/09/12 11:16:25;;;;;;;25.40;18.83;;;;;;;;;;6302046;22;20432;-82
2022/09/12 11:19:09;;;;;;;26.80;18.55;;;;;;;;;;6298857;22;20055;-82
2022/09/12 11:21:59;;;;;;;26.20;19.55;;;;;;;;;;6272993;22;20025;-83
2022/09/12 11:24:29;;;;;;;24.50;17.90;;;;;;;;;;6303234;22;20813;-82
2022/09/12 11:27:04;;;;;;;28.65;17.67;;;;;;;;;;6245568;22;20026;-83
2022/09/12 11:29:33;;;;;;;21.50;16.52;;;;;;;;;;6300178;22;20015;-83
2022/09/12 11:31:59;;;;;;;26.15;18.73;;;;;;;;;;6245055;22;20027;-85
2022/09/12 11:34:35;;;;;;;25.45;18.42;;;;;;;;;;6299031;22;20099;-83
2022/09/12 11:37:11;;;;;;;27.50;18.85;;;;;;;;;;6298699;22;20078;-81
2022/09/12 11:39:42;;;;;;;23.08;16.92;;;;;;;;;;6269585;22;20027;-84
2022/09/12 11:42:18;;;;;;;24.67;18.10;;;;;;;;;;6301455;22;20025;-83
2022/09/12 11:44:52;;;;;;;26.13;18.92;;;;;;;;;;6271989;22;20098;-82
2022/09/12 11:47:19;;;;;;;26.05;18.38;;;;;;;;;;6274826;22;20356;-84
2022/09/12 11:50:07;;;;;;;25.38;16.98;;;;;;;;;;6298780;22;20023;-84
2022/09/12 11:52:37;;;;;;;23.38;15.90;;;;;;;;;;6273044;22;20015;-82
2022/09/12 11:55:07;;;;;;;22.27;15.88;;;;;;;;;;6299374;22;20019;-85
2022/09/12 11:57:48;;;;;;;22.77;15.90;;;;;;;;;;6268981;22;20029;-83
2022/09/12 12:00:17;;;;;;;23.48;16.67;;;;;;;;;;6299596;22;20019;-83
2022/09/12 12:03:03;;;;;;;22.95;15.35;;;;;;;;;;6298268;22;20015;-83
2022/09/12 12:05:53;;;;;;;18.88;14.30;;;;;;;;;;6247667;22;20739;-84
2022/09/12 12:08:21;;;;;;;17.27;12.95;;;;;;;;;;6299097;22;20046;-82
2022/09/12 12:10:53;;;;;;;21.88;14.63;;;;;;;;;;6298968;22;20019;-83
2022/09/12 12:13:31;;;;;;;19.02;13.75;;;;;;;;;;6300752;22;20019;-82
2022/09/12 12:15:59;;;;;;;25.73;15.15;;;;;;;;;;6299166;22;20071;-82
2022/09/12 12:18:29;;;;;;;17.75;12.40;;;;;;;;;;6300811;22;20020;-84
2022/09/12 12:20:56;;;;;;;17.00;12.00;;;;;;;;;;6300441;22;20023;-84
2022/09/12 12:23:34;;;;;;;15.57;11.13;;;;;;;;;;6274345;22;20370;-84
2022/09/12 12:26:04;;;;;;;19.73;12.70;;;;;;;;;;6308665;22;20054;-83
2022/09/12 12:28:49;;;;;;;19.80;13.82;;;;;;;;;;6284898;22;20404;-85
2022/09/12 12:31:35;;;;;;;18.77;13.43;;;;;;;;;;6313755;22;20019;-82
2022/09/12 12:34:03;;;;;;;17.58;12.70;;;;;;;;;;6303510;22;20412;-81
2022/09/12 12:36:37;;;;;;;15.10;11.43;;;;;;;;;;6302596;22;20015;-84
2022/09/12 12:39:22;;;;;;;16.63;12.30;;;;;;;;;;6304073;22;20015;-83
2022/09/12 12:41:48;;;;;;;20.15;14.57;;;;;;;;;;6274910;22;20015;-82
2022/09/12 12:44:33;;;;;;;13.88;11.45;;;;;;;;;;6303807;22;20117;-83
2022/09/12 12:47:18;;;;;;;18.63;12.00;;;;;;;;;;6276321;22;20153;-83
2022/09/12 12:49:50;;;;;;;18.40;12.52;;;;;;;;;;6290624;22;20081;-85
2022/09/12 12:52:18;;;;;;;14.63;10.43;;;;;;;;;;6315250;22;20374;-84
2022/09/12 12:54:44;;;;;;;18.55;12.20;;;;;;;;;;6313363;22;20016;-85
2022/09/12 12:57:24;;;;;;;19.08;11.57;;;;;;;;;;6287819;22;20389;-89
2022/09/12 12:59:55;;;;;;;16.13;12.15;;;;;;;;;;6312898;22;20066;-88
2022/09/12 13:02:26;;;;;;;16.73;12.38;;;;;;;;;;6314079;22;21030;-86
2022/09/12 13:04:54;;;;;;;13.35;11.13;;;;;;;;;;6279535;22;20073;-83
2022/09/12 13:07:26;;;;;;;15.43;11.00;;;;;;;;;;6306396;22;20060;-84
2022/09/12 13:09:58;;;;;;;15.48;12.30;;;;;;;;;;6315012;22;20034;-86
2022/09/12 13:12:26;;;;;;;19.73;11.30;;;;;;;;;;6316151;22;20444;-87
2022/09/12 13:14:54;;;;;;;13.90;9.90;;;;;;;;;;6313986;22;20042;-90
2022/09/12 13:17:41;;;;;;;13.15;8.43;;;;;;;;;;6309886;22;20019;-86
2022/09/12 13:20:32;;;;;;;12.43;9.02;;;;;;;;;;6307918;22;20101;-83
2022/09/12 13:23:02;;;;;;;9.73;8.27;;;;;;;;;;6249262;22;20459;-82
2022/09/12 13:25:35;;;;;;;13.07;8.43;;;;;;;;;;6275627;22;20394;-83
2022/09/12 13:28:01;;;;;;;;;;;;;;;;;;6313332;22;20016;-87
2022/09/12 13:30:31;;;;;;;15.57;11.10;;;;;;;;;;6309666;22;19982;-86
2022/09/12 13:32:58;;;;;;;11.95;10.65;;;;;;;;;;6308151;22;20019;-84
2022/09/12 13:35:28;;;;;;;15.43;11.50;;;;;;;;;;6279113;22;20161;-85
2022/09/12 13:37:58;;;;;;;18.92;10.05;;;;;;;;;;6308981;22;20026;-86
2022/09/12 13:40:24;;;;;;;12.00;8.30;;;;;;;;;;6308881;22;20011;-86
2022/09/12 13:43:04;;;;;;;12.82;7.95;;;;;;;;;;6281986;22;20023;-88
2022/09/12 13:45:39;;;;;;;12.65;8.25;;;;;;;;;;6254899;22;20043;-84
2022/09/12 13:48:06;;;;;;;9.27;7.10;;;;;;;;;;6309264;22;20023;-86
2022/09/12 13:50:36;;;;;;;9.32;6.38;;;;;;;;;;6308616;22;20024;-89
2022/09/12 13:53:10;;;;;;;8.85;7.30;;;;;;;;;;6279583;22;20015;-86
2022/09/12 13:55:41;;;;;;;10.90;7.88;;;;;;;;;;6307836;22;20015;-85
2022/09/12 13:58:16;;;;;;;10.52;8.65;;;;;;;;;;6275976;22;20019;-86
2022/09/12 14:01:01;;;;;;;14.88;11.18;;;;;;;;;;6280346;22;20071;-83
2022/09/12 14:06:28;;;;;;;12.70;9.82;;;;;;;;;;6277854;22;20023;-87
2022/09/12 14:09:00;;;;;;;12.55;10.30;;;;;;;;;;6308370;22;20503;-86
2022/09/12 14:11:32;;;;;;;16.48;10.77;;;;;;;;;;6305817;22;20019;-82
2022/09/12 14:14:18;;;;;;;12.40;9.95;;;;;;;;;;6307200;22;20015;-90
2022/09/12 14:16:45;;;;;;;14.32;10.38;;;;;;;;;;6304057;22;20015;-82
2022/09/12 14:19:11;;;;;;;16.02;10.20;;;;;;;;;;6305161;22;20023;-85
2022/09/12 14:21:38;;;;;;;16.50;9.48;;;;;;;;;;6277197;22;20397;-87
2022/09/12 14:24:13;;;;;;;9.02;6.22;;;;;;;;;;6307191;22;20106;-87
2022/09/12 14:26:41;;;;;;;10.45;7.28;;;;;;;;;;6251912;22;20030;-85
2022/09/12 14:29:08;;;;;;;11.13;7.93;;;;;;;;;;6305776;22;20022;-86
2022/09/12 14:31:53;;;;;;;10.88;7.82;;;;;;;;;;6276420;22;20020;-88
2022/09/12 14:34:19;;;;;;;7.90;6.43;;;;;;;;;;6302074;22;20050;-85
2022/09/12 14:36:58;;;;;;;7.95;7.00;;;;;;;;;;6247392;22;20424;-82
2022/09/12 14:39:28;;;;;;;14.90;8.05;;;;;;;;;;6301082;22;20038;-86
2022/09/12 14:42:28;;;;;;;15.90;10.15;;;;;;;;;;6272812;22;20023;-85
2022/09/12 14:44:54;;;;;;;11.48;8.77;;;;;;;;;;6275571;22;20026;-85
2022/09/12 14:47:22;;;;;;;10.20;8.48;;;;;;;;;;6279250;22;20023;-84
2022/09/12 14:49:50;;;;;;;13.02;9.55;;;;;;;;;;6249322;22;20315;-84
2022/09/12 14:52:38;;;;;;;10.32;8.95;;;;;;;;;;6232420;23;20162;-86
2022/09/12 14:55:35;;;;;;;10.60;9.20;;;;;;;;;;6210306;23;20027;-86
2022/09/12 15:01:10;;;;;;;10.73;8.93;;;;;;;;;;6216655;23;20027;-87
2022/09/12 15:10:30;;;;;;;9.18;7.10;;;;;;;;;;6250136;23;20146;-85
2022/09/12 15:13:10;;;;;;;11.43;8.00;;;;;;;;;;6249533;23;20016;-84
2022/09/12 15:18:58;;;;;;;11.30;8.00;;;;;;;;;;6253014;22;20047;-84
2022/09/12 15:21:25;;;;;;;13.55;7.78;;;;;;;;;;6248336;23;20095;-87
2022/09/12 15:24:09;;;;;;;10.60;8.50;;;;;;;;;;6200538;23;20039;-88
2022/09/12 15:26:35;;;;;;;8.50;7.38;;;;;;;;;;6255940;23;20012;-86
2022/09/12 15:29:04;;;;;;;11.70;8.65;;;;;;;;;;6208130;23;20023;-88
2022/09/12 15:31:31;;;;;;;8.15;7.32;;;;;;;;;;6232157;23;20016;-85
2022/09/12 15:33:58;;;;;;;8.63;7.72;;;;;;;;;;6254436;23;20445;-84
2022/09/12 15:36:42;;;;;;;8.38;7.53;;;;;;;;;;6246433;23;20027;-89
2022/09/12 15:39:12;;;;;;;8.30;6.40;;;;;;;;;;6245568;23;20051;-91
2022/09/12 15:41:38;;;;;;;8.27;6.32;;;;;;;;;;6245054;23;20475;-88
2022/09/12 15:44:16;;;;;;;8.07;5.50;;;;;;;;;;6217508;23;20023;-87
2022/09/12 15:46:42;;;;;;;8.48;5.32;;;;;;;;;;6244768;23;20475;-85
2022/09/12 15:49:08;;;;;;;7.78;4.70;;;;;;;;;;6218113;23;20020;-88
2022/09/12 15:51:43;;;;;;;6.78;4.90;;;;;;;;;;6217208;23;20070;-86
2022/09/12 15:54:35;;;;;;;5.72;4.78;;;;;;;;;;6219468;23;20027;-84
2022/09/12 15:57:02;;;;;;;9.82;4.70;;;;;;;;;;6245339;23;20017;-84
2022/09/12 15:59:28;;;;;;;6.00;4.80;;;;;;;;;;6246497;23;20129;-87
2022/09/12 16:02:09;;;;;;;6.85;4.68;;;;;;;;;;6246343;23;20023;-87
2022/09/12 16:04:41;;;;;;;7.35;5.75;;;;;;;;;;6194640;23;20032;-83
2022/09/12 16:07:14;;;;;;;5.90;4.75;;;;;;;;;;6220984;23;20020;-85
2022/09/12 16:09:43;;;;;;;8.70;5.75;;;;;;;;;;6219942;23;20401;-87
2022/09/12 16:12:09;;;;;;;8.93;6.13;;;;;;;;;;6194958;23;20029;-85
2022/09/12 16:17:38;;;;;;;10.63;6.88;;;;;;;;;;6306611;22;20091;-87
2022/09/12 16:20:04;;;;;;;9.15;7.05;;;;;;;;;;6306464;22;20019;-86
2022/09/12 16:25:41;;;;;;;9.38;7.70;;;;;;;;;;6303170;22;20166;-86
2022/09/12 16:28:12;;;;;;;13.85;7.30;;;;;;;;;;6310429;22;20019;-86
2022/09/12 16:30:38;;;;;;;7.78;5.82;;;;;;;;;;6281564;22;20027;-85
2022/09/12 16:33:04;;;;;;;8.57;6.30;;;;;;;;;;6255608;22;20011;-85
2022/09/12 16:35:40;;;;;;;7.65;6.75;;;;;;;;;;6281343;22;20074;-85
2022/09/12 16:41:29;;;;;;;7.85;7.05;;;;;;;;;;6299537;22;20034;-86
2022/09/12 16:47:18;;;;;;;7.93;6.45;;;;;;;;;;6309262;22;20052;-84
2022/09/12 16:49:45;;;;;;;9.45;6.22;;;;;;;;;;6249585;22;20519;-86
2022/09/12 16:52:30;;;;;;;13.35;6.65;;;;;;;;;;6250108;22;20021;-85
2022/09/12 16:55:14;;;;;;;10.23;6.95;;;;;;;;;;6297293;22;20058;-86
2022/09/12 16:57:59;;;;;;;7.50;6.45;;;;;;;;;;6273279;22;20027;-87
2022/09/12 17:00:41;;;;;;;7.97;7.18;;;;;;;;;;6276337;22;20412;-86
2022/09/12 17:03:07;;;;;;;11.32;6.80;;;;;;;;;;6279379;22;20050;-87
2022/09/12 17:05:39;;;;;;;7.10;6.35;;;;;;;;;;6246934;22;20156;-86
2022/09/12 17:08:24;;;;;;;8.48;6.97;;;;;;;;;;6249908;22;20122;-86
2022/09/12 17:11:04;;;;;;;10.02;7.10;;;;;;;;;;6272549;22;20346;-86
2022/09/12 17:13:53;;;;;;;6.97;6.00;;;;;;;;;;6237912;23;20251;-86
2022/09/12 17:16:30;;;;;;;9.05;6.43;;;;;;;;;;6233061;23;20028;-87
2022/09/12 17:19:16;;;;;;;9.48;6.78;;;;;;;;;;6187119;23;20020;-87
2022/09/12 17:21:56;;;;;;;10.32;6.93;;;;;;;;;;6208358;23;20024;-88
2022/09/12 17:24:22;;;;;;;8.60;5.70;;;;;;;;;;6237975;23;20059;-87
2022/09/12 17:26:55;;;;;;;7.05;6.22;;;;;;;;;;6206907;23;20039;-87
2022/09/12 17:29:27;;;;;;;6.13;5.53;;;;;;;;;;6214044;23;20101;-87
2022/09/12 17:32:23;;;;;;;7.35;6.10;;;;;;;;;;6183489;23;20456;-88
2022/09/12 17:34:49;;;;;;;6.20;5.63;;;;;;;;;;6211396;23;20054;-86
2022/09/12 17:37:16;;;;;;;7.68;5.45;;;;;;;;;;6195919;22;20030;-85
2022/09/12 17:40:01;;;;;;;11.07;5.30;;;;;;;;;;6301597;22;20023;-87
2022/09/12 17:42:30;;;;;;;6.85;4.88;;;;;;;;;;6276849;22;20022;-85
2022/09/12 17:44:58;;;;;;;6.03;5.30;;;;;;;;;;6273344;22;20329;-86
2022/09/12 17:54:34;;;;;;;7.35;5.03;;;;;;;;;;6181250;23;20071;-86
2022/09/12 17:57:12;;;;;;;5.45;4.95;;;;;;;;;;6153858;23;20052;-85
2022/09/12 17:59:38;;;;;;;6.35;5.35;;;;;;;;;;6156562;23;20025;-87
2022/09/12 18:02:15;;;;;;;6.55;4.60;;;;;;;;;;6153629;23;20072;-87
2022/09/12 18:04:53;;;;;;;8.65;4.50;;;;;;;;;;6153851;23;20037;-84
2022/09/12 18:07:40;;;;;;;7.13;6.20;;;;;;;;;;6153946;23;20021;-87
2022/09/12 18:10:06;;;;;;;8.05;5.57;;;;;;;;;;6179625;23;20075;-88
2022/09/12 18:12:35;;;;;;;6.60;5.07;;;;;;;;;;6176877;23;20055;-84
2022/09/12 18:15:13;;;;;;;9.23;4.95;;;;;;;;;;6154336;23;20163;-87
2022/09/12 18:21:10;;;;;;;6.10;5.32;;;;;;;;;;6153261;23;20061;-86
2022/09/12 18:24:01;;;;;;;7.03;5.95;;;;;;;;;;6100295;23;20030;-86